sensor_id;sensor_type;location;lat;lon;timestamp;P1;durP1;ratioP1;P2;durP2;ratioP2
30677;SDS011;17437;47.188;8.896;2023-05-20T00:01:25;13.35;;;9.78;;
30677;SDS011;17437;47.188;8.896;2023-05-20T00:03:56;13.03;;;10.25;;
30677;SDS011;17437;47.188;8.896;2023-05-20T00:06:28;15.88;;;10.80;;
30677;SDS011;17437;47.188;8.896;2023-05-20T00:09:00;15.13;;;10.63;;
30677;SDS011;17437;47.188;8.896;2023-05-20T00:11:35;13.32;;;9.13;;
30677;SDS011;17437;47.188;8.896;2023-05-20T00:14:09;13.38;;;9.78;;
30677;SDS011;17437;47.188;8.896;2023-05-20T00:16:40;13.48;;;10.55;;
30677;SDS011;17437;47.188;8.896;2023-05-20T00:19:12;13.98;;;10.15;;
30677;SDS011;17437;47.188;8.896;2023-05-20T00:21:45;15.43;;;10.23;;
30677;SDS011;17437;47.188;8.896;2023-05-20T00:24:16;11.35;;;10.15;;
30677;SDS011;17437;47.188;8.896;2023-05-20T00:26:48;17.10;;;11.75;;
30677;SDS011;17437;47.188;8.896;2023-05-20T00:29:19;17.73;;;13.28;;
30677;SDS011;17437;47.188;8.896;2023-05-20T00:31:51;14.58;;;12.13;;
30677;SDS011;17437;47.188;8.896;2023-05-20T00:34:23;15.80;;;11.88;;
30677;SDS011;17437;47.188;8.896;2023-05-20T00:36:54;18.00;;;13.70;;
30677;SDS011;17437;47.188;8.896;2023-05-20T00:39:26;13.95;;;11.83;;
30677;SDS011;17437;47.188;8.896;2023-05-20T00:41:58;14.83;;;12.82;;
30677;SDS011;17437;47.188;8.896;2023-05-20T00:44:31;15.32;;;11.40;;
30677;SDS011;17437;47.188;8.896;2023-05-20T00:47:03;16.37;;;12.88;;
30677;SDS011;17437;47.188;8.896;2023-05-20T00:49:35;16.52;;;12.20;;
30677;SDS011;17437;47.188;8.896;2023-05-20T00:52:06;16.12;;;12.37;;
30677;SDS011;17437;47.188;8.896;2023-05-20T00:54:38;14.58;;;11.38;;
30677;SDS011;17437;47.188;8.896;2023-05-20T00:57:11;14.05;;;11.70;;
30677;SDS011;17437;47.188;8.896;2023-05-20T00:59:42;15.03;;;11.45;;
30677;SDS011;17437;47.188;8.896;2023-05-20T01:02:14;15.13;;;11.00;;
30677;SDS011;17437;47.188;8.896;2023-05-20T01:04:46;14.90;;;11.83;;
30677;SDS011;17437;47.188;8.896;2023-05-20T01:07:18;14.25;;;11.33;;
30677;SDS011;17437;47.188;8.896;2023-05-20T01:09:49;15.72;;;11.73;;
30677;SDS011;17437;47.188;8.896;2023-05-20T01:12:25;16.45;;;13.32;;
30677;SDS011;17437;47.188;8.896;2023-05-20T01:14:58;16.42;;;13.13;;
30677;SDS011;17437;47.188;8.896;2023-05-20T01:17:32;14.80;;;12.65;;
30677;SDS011;17437;47.188;8.896;2023-05-20T01:20:08;17.57;;;12.37;;
30677;SDS011;17437;47.188;8.896;2023-05-20T01:22:46;16.50;;;12.18;;
30677;SDS011;17437;47.188;8.896;2023-05-20T01:25:18;18.07;;;13.85;;
30677;SDS011;17437;47.188;8.896;2023-05-20T01:27:50;15.03;;;12.28;;
30677;SDS011;17437;47.188;8.896;2023-05-20T01:30:23;16.17;;;12.85;;
30677;SDS011;17437;47.188;8.896;2023-05-20T01:32:59;17.27;;;13.13;;
30677;SDS011;17437;47.188;8.896;2023-05-20T01:35:32;19.82;;;14.53;;
30677;SDS011;17437;47.188;8.896;2023-05-20T01:38:05;19.62;;;14.18;;
30677;SDS011;17437;47.188;8.896;2023-05-20T01:40:37;15.15;;;12.20;;
30677;SDS011;17437;47.188;8.896;2023-05-20T01:43:10;18.85;;;12.75;;
30677;SDS011;17437;47.188;8.896;2023-05-20T01:45:44;16.37;;;13.03;;
30677;SDS011;17437;47.188;8.896;2023-05-20T01:48:16;16.12;;;13.78;;
30677;SDS011;17437;47.188;8.896;2023-05-20T01:50:47;17.77;;;13.60;;
30677;SDS011;17437;47.188;8.896;2023-05-20T01:53:19;13.90;;;12.20;;
30677;SDS011;17437;47.188;8.896;2023-05-20T01:55:51;18.30;;;12.85;;
30677;SDS011;17437;47.188;8.896;2023-05-20T01:58:22;15.95;;;11.80;;
30677;SDS011;17437;47.188;8.896;2023-05-20T02:00:54;17.67;;;13.20;;
30677;SDS011;17437;47.188;8.896;2023-05-20T02:03:25;19.32;;;12.07;;
30677;SDS011;17437;47.188;8.896;2023-05-20T02:05:57;16.12;;;11.80;;
30677;SDS011;17437;47.188;8.896;2023-05-20T02:08:29;16.87;;;13.60;;
30677;SDS011;17437;47.188;8.896;2023-05-20T02:11:00;15.38;;;12.10;;
30677;SDS011;17437;47.188;8.896;2023-05-20T02:13:32;16.97;;;12.73;;
30677;SDS011;17437;47.188;8.896;2023-05-20T02:16:04;18.92;;;12.50;;
30677;SDS011;17437;47.188;8.896;2023-05-20T02:18:36;15.93;;;13.48;;
30677;SDS011;17437;47.188;8.896;2023-05-20T02:21:07;14.80;;;11.68;;
30677;SDS011;17437;47.188;8.896;2023-05-20T02:23:39;16.10;;;12.50;;
30677;SDS011;17437;47.188;8.896;2023-05-20T02:26:11;18.35;;;14.60;;
30677;SDS011;17437;47.188;8.896;2023-05-20T02:28:42;17.60;;;12.37;;
30677;SDS011;17437;47.188;8.896;2023-05-20T02:31:14;13.95;;;11.70;;
30677;SDS011;17437;47.188;8.896;2023-05-20T02:33:46;16.80;;;11.63;;
30677;SDS011;17437;47.188;8.896;2023-05-20T02:36:18;20.50;;;12.95;;
30677;SDS011;17437;47.188;8.896;2023-05-20T02:38:49;18.17;;;13.25;;
30677;SDS011;17437;47.188;8.896;2023-05-20T02:41:22;16.10;;;12.43;;
30677;SDS011;17437;47.188;8.896;2023-05-20T02:43:54;19.55;;;14.58;;
30677;SDS011;17437;47.188;8.896;2023-05-20T02:46:26;18.37;;;14.50;;
30677;SDS011;17437;47.188;8.896;2023-05-20T02:48:57;17.90;;;14.05;;
30677;SDS011;17437;47.188;8.896;2023-05-20T02:51:29;18.62;;;13.10;;
30677;SDS011;17437;47.188;8.896;2023-05-20T02:54:01;22.65;;;14.25;;
30677;SDS011;17437;47.188;8.896;2023-05-20T02:56:33;16.27;;;12.50;;
30677;SDS011;17437;47.188;8.896;2023-05-20T02:59:04;18.87;;;12.15;;
30677;SDS011;17437;47.188;8.896;2023-05-20T03:01:36;18.92;;;13.48;;
30677;SDS011;17437;47.188;8.896;2023-05-20T03:04:08;22.60;;;12.70;;
30677;SDS011;17437;47.188;8.896;2023-05-20T03:06:40;17.40;;;13.30;;
30677;SDS011;17437;47.188;8.896;2023-05-20T03:09:13;19.67;;;13.60;;
30677;SDS011;17437;47.188;8.896;2023-05-20T03:11:45;17.95;;;14.43;;
30677;SDS011;17437;47.188;8.896;2023-05-20T03:14:17;19.80;;;14.30;;
30677;SDS011;17437;47.188;8.896;2023-05-20T03:16:49;17.25;;;13.65;;
30677;SDS011;17437;47.188;8.896;2023-05-20T03:19:22;19.65;;;15.25;;
30677;SDS011;17437;47.188;8.896;2023-05-20T03:21:54;16.77;;;13.38;;
30677;SDS011;17437;47.188;8.896;2023-05-20T03:24:27;18.32;;;12.78;;
30677;SDS011;17437;47.188;8.896;2023-05-20T03:26:58;21.20;;;13.43;;
30677;SDS011;17437;47.188;8.896;2023-05-20T03:29:30;17.60;;;12.30;;
30677;SDS011;17437;47.188;8.896;2023-05-20T03:32:02;19.82;;;12.35;;
30677;SDS011;17437;47.188;8.896;2023-05-20T03:34:36;17.85;;;12.58;;
30677;SDS011;17437;47.188;8.896;2023-05-20T03:37:07;19.40;;;13.00;;
30677;SDS011;17437;47.188;8.896;2023-05-20T03:39:39;17.73;;;12.03;;
30677;SDS011;17437;47.188;8.896;2023-05-20T03:42:10;22.62;;;12.95;;
30677;SDS011;17437;47.188;8.896;2023-05-20T03:44:42;14.10;;;11.97;;
30677;SDS011;17437;47.188;8.896;2023-05-20T03:47:14;19.55;;;12.40;;
30677;SDS011;17437;47.188;8.896;2023-05-20T03:49:45;17.27;;;12.43;;
30677;SDS011;17437;47.188;8.896;2023-05-20T03:52:17;17.67;;;13.40;;
30677;SDS011;17437;47.188;8.896;2023-05-20T03:54:49;20.05;;;12.90;;
30677;SDS011;17437;47.188;8.896;2023-05-20T03:57:20;19.95;;;13.53;;
30677;SDS011;17437;47.188;8.896;2023-05-20T03:59:52;20.62;;;14.10;;
30677;SDS011;17437;47.188;8.896;2023-05-20T04:02:24;17.57;;;12.40;;
30677;SDS011;17437;47.188;8.896;2023-05-20T04:04:55;15.15;;;12.73;;
30677;SDS011;17437;47.188;8.896;2023-05-20T04:07:28;18.55;;;11.18;;
30677;SDS011;17437;47.188;8.896;2023-05-20T04:10:00;19.20;;;13.83;;
30677;SDS011;17437;47.188;8.896;2023-05-20T04:12:32;15.90;;;12.82;;
30677;SDS011;17437;47.188;8.896;2023-05-20T04:15:06;19.60;;;14.20;;
30677;SDS011;17437;47.188;8.896;2023-05-20T04:17:40;18.35;;;13.08;;
30677;SDS011;17437;47.188;8.896;2023-05-20T04:20:13;29.87;;;15.88;;
30677;SDS011;17437;47.188;8.896;2023-05-20T04:22:44;18.25;;;12.75;;
30677;SDS011;17437;47.188;8.896;2023-05-20T04:25:17;19.15;;;14.45;;
30677;SDS011;17437;47.188;8.896;2023-05-20T04:27:51;16.93;;;12.23;;
30677;SDS011;17437;47.188;8.896;2023-05-20T04:30:22;18.73;;;12.50;;
30677;SDS011;17437;47.188;8.896;2023-05-20T04:32:54;12.98;;;11.40;;
30677;SDS011;17437;47.188;8.896;2023-05-20T04:35:25;18.20;;;12.60;;
30677;SDS011;17437;47.188;8.896;2023-05-20T04:37:57;15.45;;;12.63;;
30677;SDS011;17437;47.188;8.896;2023-05-20T04:40:29;19.35;;;13.13;;
30677;SDS011;17437;47.188;8.896;2023-05-20T04:43:00;15.25;;;11.80;;
30677;SDS011;17437;47.188;8.896;2023-05-20T04:45:32;13.75;;;10.88;;
30677;SDS011;17437;47.188;8.896;2023-05-20T04:48:04;13.43;;;10.32;;
30677;SDS011;17437;47.188;8.896;2023-05-20T04:50:37;19.80;;;10.85;;
30677;SDS011;17437;47.188;8.896;2023-05-20T04:53:09;15.83;;;11.53;;
30677;SDS011;17437;47.188;8.896;2023-05-20T04:55:41;18.27;;;11.53;;
30677;SDS011;17437;47.188;8.896;2023-05-20T04:58:13;15.75;;;12.18;;
30677;SDS011;17437;47.188;8.896;2023-05-20T05:00:45;17.10;;;12.65;;
30677;SDS011;17437;47.188;8.896;2023-05-20T05:03:17;17.55;;;12.98;;
30677;SDS011;17437;47.188;8.896;2023-05-20T05:05:49;15.30;;;10.78;;
30677;SDS011;17437;47.188;8.896;2023-05-20T05:08:22;20.00;;;12.88;;
30677;SDS011;17437;47.188;8.896;2023-05-20T05:10:54;19.90;;;12.33;;
30677;SDS011;17437;47.188;8.896;2023-05-20T05:13:26;14.98;;;11.05;;
30677;SDS011;17437;47.188;8.896;2023-05-20T05:15:58;17.57;;;12.47;;
30677;SDS011;17437;47.188;8.896;2023-05-20T05:18:29;19.27;;;11.70;;
30677;SDS011;17437;47.188;8.896;2023-05-20T05:21:01;15.13;;;12.03;;
30677;SDS011;17437;47.188;8.896;2023-05-20T05:23:34;17.00;;;10.88;;
30677;SDS011;17437;47.188;8.896;2023-05-20T05:26:06;16.50;;;11.53;;
30677;SDS011;17437;47.188;8.896;2023-05-20T05:28:37;20.95;;;12.65;;
30677;SDS011;17437;47.188;8.896;2023-05-20T05:31:10;16.82;;;11.95;;
30677;SDS011;17437;47.188;8.896;2023-05-20T05:33:42;17.92;;;13.88;;
30677;SDS011;17437;47.188;8.896;2023-05-20T05:36:14;13.40;;;11.95;;
30677;SDS011;17437;47.188;8.896;2023-05-20T05:38:45;14.47;;;11.45;;
30677;SDS011;17437;47.188;8.896;2023-05-20T05:41:17;20.80;;;12.28;;
30677;SDS011;17437;47.188;8.896;2023-05-20T05:43:49;16.67;;;12.88;;
30677;SDS011;17437;47.188;8.896;2023-05-20T05:49:03;14.55;;;11.38;;
30677;SDS011;17437;47.188;8.896;2023-05-20T05:51:35;18.60;;;12.33;;
30677;SDS011;17437;47.188;8.896;2023-05-20T05:54:07;21.42;;;12.03;;
30677;SDS011;17437;47.188;8.896;2023-05-20T05:56:39;19.37;;;12.60;;
30677;SDS011;17437;47.188;8.896;2023-05-20T05:59:10;12.80;;;10.50;;
30677;SDS011;17437;47.188;8.896;2023-05-20T06:01:42;13.00;;;11.55;;
30677;SDS011;17437;47.188;8.896;2023-05-20T06:04:14;20.88;;;12.85;;
30677;SDS011;17437;47.188;8.896;2023-05-20T06:06:46;14.18;;;9.85;;
30677;SDS011;17437;47.188;8.896;2023-05-20T06:09:18;16.25;;;10.80;;
30677;SDS011;17437;47.188;8.896;2023-05-20T06:11:50;16.75;;;12.58;;
30677;SDS011;17437;47.188;8.896;2023-05-20T06:14:21;17.23;;;10.98;;
30677;SDS011;17437;47.188;8.896;2023-05-20T06:16:53;17.98;;;12.53;;
30677;SDS011;17437;47.188;8.896;2023-05-20T06:19:24;17.52;;;12.15;;
30677;SDS011;17437;47.188;8.896;2023-05-20T06:21:56;16.67;;;11.73;;
30677;SDS011;17437;47.188;8.896;2023-05-20T06:24:28;13.70;;;10.85;;
30677;SDS011;17437;47.188;8.896;2023-05-20T06:26:59;14.70;;;11.25;;
30677;SDS011;17437;47.188;8.896;2023-05-20T06:29:31;15.03;;;11.97;;
30677;SDS011;17437;47.188;8.896;2023-05-20T06:32:03;16.37;;;11.53;;
30677;SDS011;17437;47.188;8.896;2023-05-20T06:34:39;16.90;;;11.53;;
30677;SDS011;17437;47.188;8.896;2023-05-20T06:37:11;15.10;;;10.80;;
30677;SDS011;17437;47.188;8.896;2023-05-20T06:39:43;16.00;;;11.73;;
30677;SDS011;17437;47.188;8.896;2023-05-20T06:42:15;14.45;;;10.85;;
30677;SDS011;17437;47.188;8.896;2023-05-20T06:44:47;12.55;;;9.95;;
30677;SDS011;17437;47.188;8.896;2023-05-20T06:47:19;17.42;;;10.82;;
30677;SDS011;17437;47.188;8.896;2023-05-20T06:49:51;12.50;;;10.28;;
30677;SDS011;17437;47.188;8.896;2023-05-20T06:52:23;17.02;;;10.18;;
30677;SDS011;17437;47.188;8.896;2023-05-20T06:54:54;11.38;;;9.23;;
30677;SDS011;17437;47.188;8.896;2023-05-20T06:57:26;13.35;;;10.23;;
30677;SDS011;17437;47.188;8.896;2023-05-20T06:59:57;12.47;;;8.85;;
30677;SDS011;17437;47.188;8.896;2023-05-20T07:02:29;11.83;;;10.10;;
30677;SDS011;17437;47.188;8.896;2023-05-20T07:05:02;10.08;;;8.33;;
30677;SDS011;17437;47.188;8.896;2023-05-20T07:07:34;11.73;;;9.65;;
30677;SDS011;17437;47.188;8.896;2023-05-20T07:10:07;11.93;;;10.65;;
30677;SDS011;17437;47.188;8.896;2023-05-20T07:12:39;11.28;;;10.03;;
30677;SDS011;17437;47.188;8.896;2023-05-20T07:15:11;11.12;;;9.03;;
30677;SDS011;17437;47.188;8.896;2023-05-20T07:17:42;9.83;;;8.58;;
30677;SDS011;17437;47.188;8.896;2023-05-20T07:20:14;11.22;;;9.10;;
30677;SDS011;17437;47.188;8.896;2023-05-20T07:22:46;13.38;;;9.45;;
30677;SDS011;17437;47.188;8.896;2023-05-20T07:25:18;9.05;;;7.87;;
30677;SDS011;17437;47.188;8.896;2023-05-20T07:27:51;10.40;;;7.87;;
30677;SDS011;17437;47.188;8.896;2023-05-20T07:30:22;11.25;;;7.97;;
30677;SDS011;17437;47.188;8.896;2023-05-20T07:32:54;14.15;;;9.83;;
30677;SDS011;17437;47.188;8.896;2023-05-20T07:35:26;11.60;;;9.50;;
30677;SDS011;17437;47.188;8.896;2023-05-20T07:37:58;10.45;;;8.78;;
30677;SDS011;17437;47.188;8.896;2023-05-20T07:40:29;10.63;;;8.93;;
30677;SDS011;17437;47.188;8.896;2023-05-20T07:43:01;11.73;;;8.60;;
30677;SDS011;17437;47.188;8.896;2023-05-20T07:45:33;12.23;;;8.90;;
30677;SDS011;17437;47.188;8.896;2023-05-20T07:48:05;13.55;;;10.30;;
30677;SDS011;17437;47.188;8.896;2023-05-20T07:50:38;11.43;;;8.43;;
30677;SDS011;17437;47.188;8.896;2023-05-20T07:53:11;14.55;;;8.73;;
30677;SDS011;17437;47.188;8.896;2023-05-20T07:55:42;10.55;;;8.78;;
30677;SDS011;17437;47.188;8.896;2023-05-20T07:58:14;16.95;;;12.78;;
30677;SDS011;17437;47.188;8.896;2023-05-20T08:00:46;9.55;;;8.60;;
30677;SDS011;17437;47.188;8.896;2023-05-20T08:03:17;11.40;;;8.60;;
30677;SDS011;17437;47.188;8.896;2023-05-20T08:05:50;9.58;;;8.50;;
30677;SDS011;17437;47.188;8.896;2023-05-20T08:08:22;11.03;;;7.42;;
30677;SDS011;17437;47.188;8.896;2023-05-20T08:10:56;11.70;;;8.05;;
30677;SDS011;17437;47.188;8.896;2023-05-20T08:13:29;10.78;;;8.90;;
30677;SDS011;17437;47.188;8.896;2023-05-20T08:16:01;11.35;;;9.25;;
30677;SDS011;17437;47.188;8.896;2023-05-20T08:18:35;10.03;;;8.75;;
30677;SDS011;17437;47.188;8.896;2023-05-20T08:21:06;9.35;;;8.33;;
30677;SDS011;17437;47.188;8.896;2023-05-20T08:23:38;12.73;;;8.98;;
30677;SDS011;17437;47.188;8.896;2023-05-20T08:26:09;14.35;;;9.05;;
30677;SDS011;17437;47.188;8.896;2023-05-20T08:28:41;17.98;;;9.73;;
30677;SDS011;17437;47.188;8.896;2023-05-20T08:31:13;11.70;;;8.73;;
30677;SDS011;17437;47.188;8.896;2023-05-20T08:33:53;11.18;;;8.55;;
30677;SDS011;17437;47.188;8.896;2023-05-20T08:36:25;11.43;;;9.00;;
30677;SDS011;17437;47.188;8.896;2023-05-20T08:38:56;10.25;;;8.60;;
30677;SDS011;17437;47.188;8.896;2023-05-20T08:41:28;20.55;;;10.98;;
30677;SDS011;17437;47.188;8.896;2023-05-20T08:44:00;13.18;;;10.55;;
30677;SDS011;17437;47.188;8.896;2023-05-20T08:46:33;10.35;;;8.35;;
30677;SDS011;17437;47.188;8.896;2023-05-20T08:49:05;11.03;;;9.30;;
30677;SDS011;17437;47.188;8.896;2023-05-20T08:51:36;12.23;;;9.03;;
30677;SDS011;17437;47.188;8.896;2023-05-20T08:54:11;13.40;;;10.13;;
30677;SDS011;17437;47.188;8.896;2023-05-20T08:56:44;10.68;;;8.58;;
30677;SDS011;17437;47.188;8.896;2023-05-20T08:59:16;10.80;;;9.10;;
30677;SDS011;17437;47.188;8.896;2023-05-20T09:01:48;11.88;;;9.23;;
30677;SDS011;17437;47.188;8.896;2023-05-20T09:04:20;9.53;;;7.30;;
30677;SDS011;17437;47.188;8.896;2023-05-20T09:06:52;11.53;;;8.83;;
30677;SDS011;17437;47.188;8.896;2023-05-20T09:09:24;11.40;;;9.80;;
30677;SDS011;17437;47.188;8.896;2023-05-20T09:11:56;10.78;;;8.98;;
30677;SDS011;17437;47.188;8.896;2023-05-20T09:14:28;11.43;;;9.43;;
30677;SDS011;17437;47.188;8.896;2023-05-20T09:16:59;10.10;;;8.50;;
30677;SDS011;17437;47.188;8.896;2023-05-20T09:19:32;11.35;;;7.97;;
30677;SDS011;17437;47.188;8.896;2023-05-20T09:22:04;7.70;;;6.80;;
30677;SDS011;17437;47.188;8.896;2023-05-20T09:24:35;9.48;;;7.47;;
30677;SDS011;17437;47.188;8.896;2023-05-20T09:27:07;9.70;;;7.67;;
30677;SDS011;17437;47.188;8.896;2023-05-20T09:29:39;8.75;;;7.58;;
30677;SDS011;17437;47.188;8.896;2023-05-20T09:32:11;8.85;;;7.37;;
30677;SDS011;17437;47.188;8.896;2023-05-20T09:34:47;8.50;;;6.75;;
30677;SDS011;17437;47.188;8.896;2023-05-20T09:37:20;8.93;;;7.58;;
30677;SDS011;17437;47.188;8.896;2023-05-20T09:39:55;10.05;;;7.97;;
30677;SDS011;17437;47.188;8.896;2023-05-20T09:42:30;9.00;;;8.08;;
30677;SDS011;17437;47.188;8.896;2023-05-20T09:45:03;8.83;;;7.58;;
30677;SDS011;17437;47.188;8.896;2023-05-20T09:47:38;9.25;;;7.17;;
30677;SDS011;17437;47.188;8.896;2023-05-20T09:50:10;7.80;;;7.08;;
30677;SDS011;17437;47.188;8.896;2023-05-20T09:52:44;8.25;;;5.90;;
30677;SDS011;17437;47.188;8.896;2023-05-20T09:55:19;10.45;;;6.85;;
30677;SDS011;17437;47.188;8.896;2023-05-20T09:57:51;8.98;;;7.25;;
30677;SDS011;17437;47.188;8.896;2023-05-20T10:00:24;9.23;;;7.08;;
30677;SDS011;17437;47.188;8.896;2023-05-20T10:02:55;7.83;;;7.00;;
30677;SDS011;17437;47.188;8.896;2023-05-20T10:05:29;10.65;;;6.83;;
30677;SDS011;17437;47.188;8.896;2023-05-20T10:08:20;7.28;;;6.12;;
30677;SDS011;17437;47.188;8.896;2023-05-20T10:11:05;10.10;;;8.15;;
30677;SDS011;17437;47.188;8.896;2023-05-20T10:13:49;7.22;;;6.37;;
30677;SDS011;17437;47.188;8.896;2023-05-20T10:16:33;8.85;;;6.92;;
30677;SDS011;17437;47.188;8.896;2023-05-20T10:19:11;7.78;;;6.97;;
30677;SDS011;17437;47.188;8.896;2023-05-20T10:21:54;8.78;;;7.00;;
30677;SDS011;17437;47.188;8.896;2023-05-20T10:24:29;9.18;;;7.50;;
30677;SDS011;17437;47.188;8.896;2023-05-20T10:27:06;7.83;;;6.60;;
30677;SDS011;17437;47.188;8.896;2023-05-20T10:29:42;8.93;;;7.78;;
30677;SDS011;17437;47.188;8.896;2023-05-20T10:32:23;10.60;;;8.13;;
30677;SDS011;17437;47.188;8.896;2023-05-20T10:34:58;9.75;;;8.00;;
30677;SDS011;17437;47.188;8.896;2023-05-20T10:37:41;8.05;;;7.25;;
30677;SDS011;17437;47.188;8.896;2023-05-20T10:40:11;9.60;;;7.25;;
30677;SDS011;17437;47.188;8.896;2023-05-20T10:42:45;9.13;;;6.60;;
30677;SDS011;17437;47.188;8.896;2023-05-20T10:45:26;9.33;;;7.25;;
30677;SDS011;17437;47.188;8.896;2023-05-20T10:48:00;7.55;;;6.75;;
30677;SDS011;17437;47.188;8.896;2023-05-20T10:50:33;9.08;;;7.17;;
30677;SDS011;17437;47.188;8.896;2023-05-20T10:56:02;10.45;;;8.83;;
30677;SDS011;17437;47.188;8.896;2023-05-20T10:58:36;9.78;;;8.15;;
30677;SDS011;17437;47.188;8.896;2023-05-20T11:01:08;8.58;;;7.08;;
30677;SDS011;17437;47.188;8.896;2023-05-20T11:03:42;9.28;;;8.30;;
30677;SDS011;17437;47.188;8.896;2023-05-20T11:06:17;8.20;;;7.20;;
30677;SDS011;17437;47.188;8.896;2023-05-20T11:08:49;9.45;;;8.03;;
30677;SDS011;17437;47.188;8.896;2023-05-20T11:11:21;7.60;;;6.70;;
30677;SDS011;17437;47.188;8.896;2023-05-20T11:13:52;9.98;;;7.25;;
30677;SDS011;17437;47.188;8.896;2023-05-20T11:16:26;11.60;;;8.48;;
30677;SDS011;17437;47.188;8.896;2023-05-20T11:18:57;8.33;;;7.53;;
30677;SDS011;17437;47.188;8.896;2023-05-20T11:21:29;8.53;;;7.60;;
30677;SDS011;17437;47.188;8.896;2023-05-20T11:24:02;10.95;;;7.78;;
30677;SDS011;17437;47.188;8.896;2023-05-20T11:26:33;17.95;;;7.50;;
30677;SDS011;17437;47.188;8.896;2023-05-20T11:29:05;9.55;;;6.65;;
30677;SDS011;17437;47.188;8.896;2023-05-20T11:31:37;14.15;;;8.18;;
30677;SDS011;17437;47.188;8.896;2023-05-20T11:34:09;9.28;;;7.22;;
30677;SDS011;17437;47.188;8.896;2023-05-20T11:36:40;9.50;;;7.47;;
30677;SDS011;17437;47.188;8.896;2023-05-20T11:39:13;9.93;;;7.85;;
30677;SDS011;17437;47.188;8.896;2023-05-20T11:41:44;8.38;;;6.67;;
30677;SDS011;17437;47.188;8.896;2023-05-20T11:44:16;8.00;;;7.03;;
30677;SDS011;17437;47.188;8.896;2023-05-20T11:46:49;8.58;;;6.62;;
30677;SDS011;17437;47.188;8.896;2023-05-20T11:49:21;13.28;;;8.00;;
30677;SDS011;17437;47.188;8.896;2023-05-20T11:51:52;8.60;;;7.28;;
30677;SDS011;17437;47.188;8.896;2023-05-20T11:54:25;10.88;;;8.28;;
30677;SDS011;17437;47.188;8.896;2023-05-20T11:56:57;14.85;;;9.13;;
30677;SDS011;17437;47.188;8.896;2023-05-20T11:59:29;7.78;;;7.05;;
30677;SDS011;17437;47.188;8.896;2023-05-20T12:02:00;9.60;;;8.10;;
30677;SDS011;17437;47.188;8.896;2023-05-20T12:04:32;10.30;;;6.55;;
30677;SDS011;17437;47.188;8.896;2023-05-20T12:07:03;8.33;;;6.50;;
30677;SDS011;17437;47.188;8.896;2023-05-20T12:09:37;9.80;;;8.63;;
30677;SDS011;17437;47.188;8.896;2023-05-20T12:12:08;7.65;;;6.40;;
30677;SDS011;17437;47.188;8.896;2023-05-20T12:14:42;11.10;;;7.28;;
30677;SDS011;17437;47.188;8.896;2023-05-20T12:17:14;7.97;;;7.05;;
30677;SDS011;17437;47.188;8.896;2023-05-20T12:19:45;11.12;;;7.00;;
30677;SDS011;17437;47.188;8.896;2023-05-20T12:22:17;9.13;;;7.67;;
30677;SDS011;17437;47.188;8.896;2023-05-20T12:24:49;8.93;;;7.47;;
30677;SDS011;17437;47.188;8.896;2023-05-20T12:27:22;9.03;;;7.50;;
30677;SDS011;17437;47.188;8.896;2023-05-20T12:29:54;7.87;;;7.08;;
30677;SDS011;17437;47.188;8.896;2023-05-20T12:32:25;12.58;;;8.70;;
30677;SDS011;17437;47.188;8.896;2023-05-20T12:34:57;8.95;;;5.95;;
30677;SDS011;17437;47.188;8.896;2023-05-20T12:37:29;10.95;;;7.03;;
30677;SDS011;17437;47.188;8.896;2023-05-20T12:40:03;10.70;;;7.50;;
30677;SDS011;17437;47.188;8.896;2023-05-20T12:42:36;8.90;;;8.00;;
30677;SDS011;17437;47.188;8.896;2023-05-20T12:45:10;9.10;;;7.00;;
30677;SDS011;17437;47.188;8.896;2023-05-20T12:47:43;8.08;;;7.37;;
30677;SDS011;17437;47.188;8.896;2023-05-20T12:50:15;8.53;;;6.05;;
30677;SDS011;17437;47.188;8.896;2023-05-20T12:52:47;10.15;;;7.17;;
30677;SDS011;17437;47.188;8.896;2023-05-20T12:55:18;8.05;;;6.87;;
30677;SDS011;17437;47.188;8.896;2023-05-20T12:57:50;11.33;;;7.15;;
30677;SDS011;17437;47.188;8.896;2023-05-20T13:00:23;8.53;;;7.47;;
30677;SDS011;17437;47.188;8.896;2023-05-20T13:02:54;8.53;;;7.62;;
30677;SDS011;17437;47.188;8.896;2023-05-20T13:05:26;9.45;;;8.43;;
30677;SDS011;17437;47.188;8.896;2023-05-20T13:07:58;9.38;;;7.10;;
30677;SDS011;17437;47.188;8.896;2023-05-20T13:10:30;9.13;;;7.87;;
30677;SDS011;17437;47.188;8.896;2023-05-20T13:13:02;10.80;;;8.68;;
30677;SDS011;17437;47.188;8.896;2023-05-20T13:15:33;9.68;;;7.22;;
30677;SDS011;17437;47.188;8.896;2023-05-20T13:18:05;7.65;;;6.53;;
30677;SDS011;17437;47.188;8.896;2023-05-20T13:20:38;12.90;;;7.72;;
30677;SDS011;17437;47.188;8.896;2023-05-20T13:23:10;10.65;;;7.15;;
30677;SDS011;17437;47.188;8.896;2023-05-20T13:25:42;9.45;;;7.37;;
30677;SDS011;17437;47.188;8.896;2023-05-20T13:28:14;9.05;;;8.10;;
30677;SDS011;17437;47.188;8.896;2023-05-20T13:30:48;14.47;;;8.50;;
30677;SDS011;17437;47.188;8.896;2023-05-20T13:33:20;8.60;;;7.80;;
30677;SDS011;17437;47.188;8.896;2023-05-20T13:35:52;9.05;;;7.20;;
30677;SDS011;17437;47.188;8.896;2023-05-20T13:38:23;13.10;;;8.40;;
30677;SDS011;17437;47.188;8.896;2023-05-20T13:40:55;12.15;;;8.73;;
30677;SDS011;17437;47.188;8.896;2023-05-20T13:43:27;9.95;;;8.45;;
30677;SDS011;17437;47.188;8.896;2023-05-20T13:46:01;13.65;;;8.65;;
30677;SDS011;17437;47.188;8.896;2023-05-20T13:48:33;12.68;;;10.00;;
30677;SDS011;17437;47.188;8.896;2023-05-20T13:51:04;12.82;;;10.25;;
30677;SDS011;17437;47.188;8.896;2023-05-20T13:53:37;12.10;;;9.88;;
30677;SDS011;17437;47.188;8.896;2023-05-20T13:56:08;11.28;;;9.25;;
30677;SDS011;17437;47.188;8.896;2023-05-20T13:58:40;12.60;;;9.15;;
30677;SDS011;17437;47.188;8.896;2023-05-20T14:01:12;9.30;;;8.38;;
30677;SDS011;17437;47.188;8.896;2023-05-20T14:03:44;9.08;;;7.65;;
30677;SDS011;17437;47.188;8.896;2023-05-20T14:06:16;10.23;;;7.85;;
30677;SDS011;17437;47.188;8.896;2023-05-20T14:08:47;9.80;;;6.90;;
30677;SDS011;17437;47.188;8.896;2023-05-20T14:11:19;9.33;;;8.08;;
30677;SDS011;17437;47.188;8.896;2023-05-20T14:13:51;8.90;;;7.40;;
30677;SDS011;17437;47.188;8.896;2023-05-20T14:16:22;9.28;;;7.95;;
30677;SDS011;17437;47.188;8.896;2023-05-20T14:18:54;9.33;;;8.23;;
30677;SDS011;17437;47.188;8.896;2023-05-20T14:21:25;7.97;;;7.17;;
30677;SDS011;17437;47.188;8.896;2023-05-20T14:23:57;9.53;;;8.53;;
30677;SDS011;17437;47.188;8.896;2023-05-20T14:26:29;9.98;;;8.43;;
30677;SDS011;17437;47.188;8.896;2023-05-20T14:29:02;12.10;;;9.58;;
30677;SDS011;17437;47.188;8.896;2023-05-20T14:31:34;17.30;;;8.73;;
30677;SDS011;17437;47.188;8.896;2023-05-20T14:34:06;9.35;;;7.95;;
30677;SDS011;17437;47.188;8.896;2023-05-20T14:36:38;9.25;;;8.08;;
30677;SDS011;17437;47.188;8.896;2023-05-20T14:39:10;8.00;;;6.95;;
30677;SDS011;17437;47.188;8.896;2023-05-20T14:41:41;10.18;;;7.92;;
30677;SDS011;17437;47.188;8.896;2023-05-20T14:44:13;11.33;;;10.00;;
30677;SDS011;17437;47.188;8.896;2023-05-20T14:46:44;9.90;;;8.95;;
30677;SDS011;17437;47.188;8.896;2023-05-20T14:49:16;11.53;;;8.63;;
30677;SDS011;17437;47.188;8.896;2023-05-20T14:51:48;9.75;;;8.75;;
30677;SDS011;17437;47.188;8.896;2023-05-20T14:54:19;9.20;;;8.30;;
30677;SDS011;17437;47.188;8.896;2023-05-20T14:56:53;11.30;;;9.98;;
30677;SDS011;17437;47.188;8.896;2023-05-20T14:59:24;14.15;;;9.80;;
30677;SDS011;17437;47.188;8.896;2023-05-20T15:01:56;9.50;;;8.50;;
30677;SDS011;17437;47.188;8.896;2023-05-20T15:04:27;10.55;;;9.45;;
30677;SDS011;17437;47.188;8.896;2023-05-20T15:06:59;8.35;;;7.55;;